sensor_id;sensor_type;location;lat;lon;timestamp;temperature;humidity
46231;DHT22;31949;51.404;-0.038;2022-12-22T00:02:01;8.10;99.90
46231;DHT22;31949;51.404;-0.038;2022-12-22T00:04:48;8.00;99.90
46231;DHT22;31949;51.404;-0.038;2022-12-22T00:07:34;8.10;99.90
46231;DHT22;31949;51.404;-0.038;2022-12-22T00:10:19;8.00;99.90
46231;DHT22;31949;51.404;-0.038;2022-12-22T00:13:09;8.00;99.90
46231;DHT22;31949;51.404;-0.038;2022-12-22T00:15:55;8.00;99.90
46231;DHT22;31949;51.404;-0.038;2022-12-22T00:18:41;8.00;99.90
46231;DHT22;31949;51.404;-0.038;2022-12-22T00:21:28;8.00;99.90
46231;DHT22;31949;51.404;-0.038;2022-12-22T00:24:15;8.00;99.90
46231;DHT22;31949;51.404;-0.038;2022-12-22T00:27:00;8.00;99.90
46231;DHT22;31949;51.404;-0.038;2022-12-22T00:29:46;8.00;99.90
46231;DHT22;31949;51.404;-0.038;2022-12-22T00:32:35;8.00;99.90
46231;DHT22;31949;51.404;-0.038;2022-12-22T00:35:24;8.00;99.90
46231;DHT22;31949;51.404;-0.038;2022-12-22T00:38:18;8.00;99.90
46231;DHT22;31949;51.404;-0.038;2022-12-22T00:41:05;8.00;99.90
46231;DHT22;31949;51.404;-0.038;2022-12-22T00:43:51;8.00;99.90
46231;DHT22;31949;51.404;-0.038;2022-12-22T00:46:38;8.00;99.90
46231;DHT22;31949;51.404;-0.038;2022-12-22T00:49:25;8.00;99.90
46231;DHT22;31949;51.404;-0.038;2022-12-22T00:52:12;8.00;99.90
46231;DHT22;31949;51.404;-0.038;2022-12-22T00:54:59;8.00;99.90
46231;DHT22;31949;51.404;-0.038;2022-12-22T00:57:44;8.00;99.90
46231;DHT22;31949;51.404;-0.038;2022-12-22T01:00:30;8.00;99.90
46231;DHT22;31949;51.404;-0.038;2022-12-22T01:03:16;8.00;99.90
46231;DHT22;31949;51.404;-0.038;2022-12-22T01:06:02;8.00;99.90
46231;DHT22;31949;51.404;-0.038;2022-12-22T01:08:48;8.00;99.90
46231;DHT22;31949;51.404;-0.038;2022-12-22T01:11:34;8.00;99.90
46231;DHT22;31949;51.404;-0.038;2022-12-22T01:14:20;8.10;99.90
46231;DHT22;31949;51.404;-0.038;2022-12-22T01:17:08;8.00;99.90
46231;DHT22;31949;51.404;-0.038;2022-12-22T01:19:54;8.10;99.90
46231;DHT22;31949;51.404;-0.038;2022-12-22T01:22:40;8.10;99.90
46231;DHT22;31949;51.404;-0.038;2022-12-22T01:25:26;8.00;99.90
46231;DHT22;31949;51.404;-0.038;2022-12-22T01:28:15;8.10;99.90
46231;DHT22;31949;51.404;-0.038;2022-12-22T01:31:27;8.00;99.90
46231;DHT22;31949;51.404;-0.038;2022-12-22T01:34:14;8.00;99.90
46231;DHT22;31949;51.404;-0.038;2022-12-22T01:37:00;8.00;99.90
46231;DHT22;31949;51.404;-0.038;2022-12-22T01:39:46;7.90;99.90
46231;DHT22;31949;51.404;-0.038;2022-12-22T01:42:32;7.90;99.90
46231;DHT22;31949;51.404;-0.038;2022-12-22T01:45:25;7.90;99.90
46231;DHT22;31949;51.404;-0.038;2022-12-22T01:48:11;7.90;99.90
46231;DHT22;31949;51.404;-0.038;2022-12-22T01:51:00;7.80;99.90
46231;DHT22;31949;51.404;-0.038;2022-12-22T01:53:47;7.80;99.90
46231;DHT22;31949;51.404;-0.038;2022-12-22T01:56:33;7.80;99.90
46231;DHT22;31949;51.404;-0.038;2022-12-22T01:59:18;7.80;99.90
46231;DHT22;31949;51.404;-0.038;2022-12-22T02:02:05;7.80;99.90
46231;DHT22;31949;51.404;-0.038;2022-12-22T02:04:53;7.70;99.90
46231;DHT22;31949;51.404;-0.038;2022-12-22T02:13:53;7.70;99.90
46231;DHT22;31949;51.404;-0.038;2022-12-22T02:16:54;7.70;99.90
46231;DHT22;31949;51.404;-0.038;2022-12-22T02:23:12;7.70;99.90
46231;DHT22;31949;51.404;-0.038;2022-12-22T02:29:20;7.60;99.90
46231;DHT22;31949;51.404;-0.038;2022-12-22T02:32:07;7.60;99.90
46231;DHT22;31949;51.404;-0.038;2022-12-22T02:34:53;7.60;99.90
46231;DHT22;31949;51.404;-0.038;2022-12-22T02:41:34;7.60;99.90
46231;DHT22;31949;51.404;-0.038;2022-12-22T02:44:49;7.60;99.90
46231;DHT22;31949;51.404;-0.038;2022-12-22T02:48:01;7.50;99.90
46231;DHT22;31949;51.404;-0.038;2022-12-22T02:50:56;7.50;99.90
46231;DHT22;31949;51.404;-0.038;2022-12-22T02:53:45;7.40;99.90
46231;DHT22;31949;51.404;-0.038;2022-12-22T02:56:32;7.50;99.90
46231;DHT22;31949;51.404;-0.038;2022-12-22T02:59:17;7.50;99.90
46231;DHT22;31949;51.404;-0.038;2022-12-22T03:02:03;7.40;99.90
46231;DHT22;31949;51.404;-0.038;2022-12-22T03:04:55;7.50;99.90
46231;DHT22;31949;51.404;-0.038;2022-12-22T03:07:41;7.40;99.90
46231;DHT22;31949;51.404;-0.038;2022-12-22T03:10:34;7.40;99.90
46231;DHT22;31949;51.404;-0.038;2022-12-22T03:13:20;7.40;99.90
46231;DHT22;31949;51.404;-0.038;2022-12-22T03:16:05;7.40;99.90
46231;DHT22;31949;51.404;-0.038;2022-12-22T03:18:51;7.40;99.90
46231;DHT22;31949;51.404;-0.038;2022-12-22T03:21:36;7.40;99.90
46231;DHT22;31949;51.404;-0.038;2022-12-22T03:24:22;7.30;99.90
46231;DHT22;31949;51.404;-0.038;2022-12-22T03:27:08;7.40;99.90
46231;DHT22;31949;51.404;-0.038;2022-12-22T03:29:35;7.40;99.90
46231;DHT22;31949;51.404;-0.038;2022-12-22T03:32:02;7.40;99.90
46231;DHT22;31949;51.404;-0.038;2022-12-22T03:34:30;7.40;99.90
46231;DHT22;31949;51.404;-0.038;2022-12-22T03:36:57;7.40;99.90
46231;DHT22;31949;51.404;-0.038;2022-12-22T03:39:24;7.50;99.90
46231;DHT22;31949;51.404;-0.038;2022-12-22T03:41:51;7.50;99.90
46231;DHT22;31949;51.404;-0.038;2022-12-22T03:44:37;7.50;99.90
46231;DHT22;31949;51.404;-0.038;2022-12-22T03:47:22;7.50;99.90
46231;DHT22;31949;51.404;-0.038;2022-12-22T03:49:50;7.60;99.90
46231;DHT22;31949;51.404;-0.038;2022-12-22T03:52:17;7.60;99.90
46231;DHT22;31949;51.404;-0.038;2022-12-22T03:54:44;7.70;99.90
46231;DHT22;31949;51.404;-0.038;2022-12-22T03:57:11;7.70;99.90
46231;DHT22;31949;51.404;-0.038;2022-12-22T03:59:38;7.70;99.90
46231;DHT22;31949;51.404;-0.038;2022-12-22T04:02:06;7.70;99.90
46231;DHT22;31949;51.404;-0.038;2022-12-22T04:04:33;7.80;99.90
46231;DHT22;31949;51.404;-0.038;2022-12-22T04:07:00;7.80;99.90
46231;DHT22;31949;51.404;-0.038;2022-12-22T04:09:27;7.80;99.90
46231;DHT22;31949;51.404;-0.038;2022-12-22T04:11:57;7.80;99.90
46231;DHT22;31949;51.404;-0.038;2022-12-22T04:14:43;7.80;99.90
46231;DHT22;31949;51.404;-0.038;2022-12-22T04:17:10;7.90;99.90
46231;DHT22;31949;51.404;-0.038;2022-12-22T04:19:38;7.90;99.90
46231;DHT22;31949;51.404;-0.038;2022-12-22T04:22:05;7.90;99.90
46231;DHT22;31949;51.404;-0.038;2022-12-22T04:24:33;7.90;99.90
46231;DHT22;31949;51.404;-0.038;2022-12-22T04:27:00;7.90;99.90
46231;DHT22;31949;51.404;-0.038;2022-12-22T04:29:29;7.90;99.90
46231;DHT22;31949;51.404;-0.038;2022-12-22T04:31:56;7.90;99.90
46231;DHT22;31949;51.404;-0.038;2022-12-22T04:34:23;7.90;99.90
46231;DHT22;31949;51.404;-0.038;2022-12-22T04:36:55;7.90;99.90
46231;DHT22;31949;51.404;-0.038;2022-12-22T04:39:36;7.80;99.90
46231;DHT22;31949;51.404;-0.038;2022-12-22T04:42:03;7.80;99.90
46231;DHT22;31949;51.404;-0.038;2022-12-22T04:44:30;7.80;99.90
46231;DHT22;31949;51.404;-0.038;2022-12-22T04:46:57;7.80;99.90
46231;DHT22;31949;51.404;-0.038;2022-12-22T04:49:25;7.80;99.90
46231;DHT22;31949;51.404;-0.038;2022-12-22T04:51:52;7.70;99.90
46231;DHT22;31949;51.404;-0.038;2022-12-22T04:54:19;7.70;99.90
46231;DHT22;31949;51.404;-0.038;2022-12-22T04:56:46;7.70;99.90
46231;DHT22;31949;51.404;-0.038;2022-12-22T04:59:17;7.70;99.90
46231;DHT22;31949;51.404;-0.038;2022-12-22T05:01:44;7.70;99.90
46231;DHT22;31949;51.404;-0.038;2022-12-22T05:04:11;7.70;99.90
46231;DHT22;31949;51.404;-0.038;2022-12-22T05:06:43;7.70;99.90
46231;DHT22;31949;51.404;-0.038;2022-12-22T05:09:10;7.70;99.90
46231;DHT22;31949;51.404;-0.038;2022-12-22T05:11:37;7.70;99.90
46231;DHT22;31949;51.404;-0.038;2022-12-22T05:14:05;7.70;99.90
46231;DHT22;31949;51.404;-0.038;2022-12-22T05:16:34;7.70;99.90
46231;DHT22;31949;51.404;-0.038;2022-12-22T05:19:01;7.70;99.90
46231;DHT22;31949;51.404;-0.038;2022-12-22T05:21:29;7.80;99.90
46231;DHT22;31949;51.404;-0.038;2022-12-22T05:23:56;7.70;99.90
46231;DHT22;31949;51.404;-0.038;2022-12-22T05:26:23;7.70;99.90
46231;DHT22;31949;51.404;-0.038;2022-12-22T05:28:50;7.80;99.90
46231;DHT22;31949;51.404;-0.038;2022-12-22T05:31:20;7.70;99.90
46231;DHT22;31949;51.404;-0.038;2022-12-22T05:33:48;7.60;99.90
46231;DHT22;31949;51.404;-0.038;2022-12-22T05:36:16;7.60;99.90
46231;DHT22;31949;51.404;-0.038;2022-12-22T05:38:46;7.60;99.90
46231;DHT22;31949;51.404;-0.038;2022-12-22T05:41:13;7.60;99.90
46231;DHT22;31949;51.404;-0.038;2022-12-22T05:43:41;7.60;99.90
46231;DHT22;31949;51.404;-0.038;2022-12-22T05:46:11;7.60;99.90
46231;DHT22;31949;51.404;-0.038;2022-12-22T05:48:38;7.70;99.90
46231;DHT22;31949;51.404;-0.038;2022-12-22T05:51:07;7.60;99.90
46231;DHT22;31949;51.404;-0.038;2022-12-22T05:53:35;7.60;99.90
46231;DHT22;31949;51.404;-0.038;2022-12-22T05:56:03;7.50;99.90
46231;DHT22;31949;51.404;-0.038;2022-12-22T05:58:30;7.50;99.90
46231;DHT22;31949;51.404;-0.038;2022-12-22T06:00:59;7.50;99.90
46231;DHT22;31949;51.404;-0.038;2022-12-22T06:03:27;7.50;99.90
46231;DHT22;31949;51.404;-0.038;2022-12-22T06:05:58;7.50;99.90
46231;DHT22;31949;51.404;-0.038;2022-12-22T06:08:26;7.50;99.90
46231;DHT22;31949;51.404;-0.038;2022-12-22T06:10:57;7.50;99.90
46231;DHT22;31949;51.404;-0.038;2022-12-22T06:13:27;7.50;99.90
46231;DHT22;31949;51.404;-0.038;2022-12-22T06:15:57;7.50;99.90
46231;DHT22;31949;51.404;-0.038;2022-12-22T06:18:27;7.40;99.90
46231;DHT22;31949;51.404;-0.038;2022-12-22T06:20:54;7.40;99.90
46231;DHT22;31949;51.404;-0.038;2022-12-22T06:23:22;7.40;99.90
46231;DHT22;31949;51.404;-0.038;2022-12-22T06:25:57;7.40;99.90
46231;DHT22;31949;51.404;-0.038;2022-12-22T06:28:25;7.30;99.90
46231;DHT22;31949;51.404;-0.038;2022-12-22T06:30:53;7.30;99.90
46231;DHT22;31949;51.404;-0.038;2022-12-22T06:33:20;7.30;99.90
46231;DHT22;31949;51.404;-0.038;2022-12-22T06:35:50;7.20;99.90
46231;DHT22;31949;51.404;-0.038;2022-12-22T06:38:26;7.20;99.90
46231;DHT22;31949;51.404;-0.038;2022-12-22T06:40:54;7.10;99.90
46231;DHT22;31949;51.404;-0.038;2022-12-22T06:43:21;7.10;99.90
46231;DHT22;31949;51.404;-0.038;2022-12-22T06:45:48;7.10;99.90
46231;DHT22;31949;51.404;-0.038;2022-12-22T06:48:15;7.00;99.90
46231;DHT22;31949;51.404;-0.038;2022-12-22T06:50:43;7.00;99.90
46231;DHT22;31949;51.404;-0.038;2022-12-22T06:53:10;7.00;99.90
46231;DHT22;31949;51.404;-0.038;2022-12-22T06:55:38;6.90;99.90
46231;DHT22;31949;51.404;-0.038;2022-12-22T06:58:05;6.90;99.90
46231;DHT22;31949;51.404;-0.038;2022-12-22T07:00:33;6.90;99.90
46231;DHT22;31949;51.404;-0.038;2022-12-22T07:03:00;6.90;99.90
46231;DHT22;31949;51.404;-0.038;2022-12-22T07:05:27;6.80;99.90
46231;DHT22;31949;51.404;-0.038;2022-12-22T07:07:57;6.80;99.90
46231;DHT22;31949;51.404;-0.038;2022-12-22T07:10:34;6.80;99.90
46231;DHT22;31949;51.404;-0.038;2022-12-22T07:13:19;6.70;99.90
46231;DHT22;31949;51.404;-0.038;2022-12-22T07:15:47;6.70;99.90
46231;DHT22;31949;51.404;-0.038;2022-12-22T07:18:25;6.70;99.90
46231;DHT22;31949;51.404;-0.038;2022-12-22T07:20:53;6.60;99.90
46231;DHT22;31949;51.404;-0.038;2022-12-22T07:23:20;6.60;99.90
46231;DHT22;31949;51.404;-0.038;2022-12-22T07:25:48;6.60;99.90
46231;DHT22;31949;51.404;-0.038;2022-12-22T07:28:15;6.70;99.90
46231;DHT22;31949;51.404;-0.038;2022-12-22T07:30:48;6.70;99.90
46231;DHT22;31949;51.404;-0.038;2022-12-22T07:33:16;6.70;99.90
46231;DHT22;31949;51.404;-0.038;2022-12-22T07:35:44;6.70;99.90
46231;DHT22;31949;51.404;-0.038;2022-12-22T07:38:12;6.70;99.90
46231;DHT22;31949;51.404;-0.038;2022-12-22T07:40:39;6.70;99.90
46231;DHT22;31949;51.404;-0.038;2022-12-22T07:43:08;6.80;99.90
46231;DHT22;31949;51.404;-0.038;2022-12-22T07:45:36;6.80;99.90
46231;DHT22;31949;51.404;-0.038;2022-12-22T07:48:03;6.80;99.90
46231;DHT22;31949;51.404;-0.038;2022-12-22T07:50:55;6.80;99.90
46231;DHT22;31949;51.404;-0.038;2022-12-22T07:53:27;6.90;99.90
46231;DHT22;31949;51.404;-0.038;2022-12-22T07:55:54;6.90;99.90
46231;DHT22;31949;51.404;-0.038;2022-12-22T07:58:22;6.90;99.90
46231;DHT22;31949;51.404;-0.038;2022-12-22T08:00:49;7.00;99.90
46231;DHT22;31949;51.404;-0.038;2022-12-22T08:03:16;7.00;99.90
46231;DHT22;31949;51.404;-0.038;2022-12-22T08:05:43;7.10;99.90
46231;DHT22;31949;51.404;-0.038;2022-12-22T08:08:11;7.10;99.90
46231;DHT22;31949;51.404;-0.038;2022-12-22T08:10:41;7.20;99.90
46231;DHT22;31949;51.404;-0.038;2022-12-22T08:13:08;7.20;99.90
46231;DHT22;31949;51.404;-0.038;2022-12-22T08:15:36;7.20;99.90
46231;DHT22;31949;51.404;-0.038;2022-12-22T08:18:04;7.30;99.90
46231;DHT22;31949;51.404;-0.038;2022-12-22T08:20:31;7.30;99.90
46231;DHT22;31949;51.404;-0.038;2022-12-22T08:22:59;7.30;99.90
46231;DHT22;31949;51.404;-0.038;2022-12-22T08:25:26;7.40;99.90
46231;DHT22;31949;51.404;-0.038;2022-12-22T08:27:54;7.40;99.90
46231;DHT22;31949;51.404;-0.038;2022-12-22T08:30:23;7.40;99.90
46231;DHT22;31949;51.404;-0.038;2022-12-22T08:32:50;7.50;99.90
46231;DHT22;31949;51.404;-0.038;2022-12-22T08:35:20;7.50;99.90
46231;DHT22;31949;51.404;-0.038;2022-12-22T08:37:48;7.50;99.90
46231;DHT22;31949;51.404;-0.038;2022-12-22T08:40:25;7.60;99.90
46231;DHT22;31949;51.404;-0.038;2022-12-22T08:42:56;7.60;99.90
46231;DHT22;31949;51.404;-0.038;2022-12-22T08:45:25;7.60;99.90
46231;DHT22;31949;51.404;-0.038;2022-12-22T08:47:52;7.70;99.90
46231;DHT22;31949;51.404;-0.038;2022-12-22T08:50:19;7.70;99.90
46231;DHT22;31949;51.404;-0.038;2022-12-22T08:52:46;7.70;99.90
46231;DHT22;31949;51.404;-0.038;2022-12-22T08:55:14;7.80;99.90
46231;DHT22;31949;51.404;-0.038;2022-12-22T08:57:41;7.90;99.90
46231;DHT22;31949;51.404;-0.038;2022-12-22T09:00:10;8.00;99.90
46231;DHT22;31949;51.404;-0.038;2022-12-22T09:02:39;8.10;99.90
46231;DHT22;31949;51.404;-0.038;2022-12-22T09:05:07;8.10;99.90
46231;DHT22;31949;51.404;-0.038;2022-12-22T09:07:34;8.20;99.90
46231;DHT22;31949;51.404;-0.038;2022-12-22T09:10:01;8.30;99.90
46231;DHT22;31949;51.404;-0.038;2022-12-22T09:12:28;8.50;99.90
46231;DHT22;31949;51.404;-0.038;2022-12-22T09:14:56;8.60;99.90
46231;DHT22;31949;51.404;-0.038;2022-12-22T09:17:24;8.60;99.90
46231;DHT22;31949;51.404;-0.038;2022-12-22T09:19:52;8.70;99.90
46231;DHT22;31949;51.404;-0.038;2022-12-22T09:22:19;8.80;99.90
46231;DHT22;31949;51.404;-0.038;2022-12-22T09:24:54;8.80;99.90
46231;DHT22;31949;51.404;-0.038;2022-12-22T09:27:22;8.90;99.90
46231;DHT22;31949;51.404;-0.038;2022-12-22T09:29:49;8.90;99.90
46231;DHT22;31949;51.404;-0.038;2022-12-22T09:32:16;9.00;99.90
46231;DHT22;31949;51.404;-0.038;2022-12-22T09:34:43;9.00;99.90
46231;DHT22;31949;51.404;-0.038;2022-12-22T09:37:14;9.00;99.90
46231;DHT22;31949;51.404;-0.038;2022-12-22T09:39:44;9.10;99.90
46231;DHT22;31949;51.404;-0.038;2022-12-22T09:42:18;9.10;99.90
46231;DHT22;31949;51.404;-0.038;2022-12-22T09:44:47;9.20;99.90
46231;DHT22;31949;51.404;-0.038;2022-12-22T09:47:40;9.30;99.90
46231;DHT22;31949;51.404;-0.038;2022-12-22T09:50:15;9.30;99.90
46231;DHT22;31949;51.404;-0.038;2022-12-22T09:52:54;9.40;99.90
46231;DHT22;31949;51.404;-0.038;2022-12-22T09:57:52;9.40;99.90
46231;DHT22;31949;51.404;-0.038;2022-12-22T10:00:22;9.50;99.90
46231;DHT22;31949;51.404;-0.038;2022-12-22T10:08:10;9.50;99.90
46231;DHT22;31949;51.404;-0.038;2022-12-22T10:10:38;9.60;99.90
46231;DHT22;31949;51.404;-0.038;2022-12-22T10:13:06;9.60;99.90
46231;DHT22;31949;51.404;-0.038;2022-12-22T10:15:43;9.60;99.90
46231;DHT22;31949;51.404;-0.038;2022-12-22T10:21:09;9.80;99.90
46231;DHT22;31949;51.404;-0.038;2022-12-22T10:23:44;9.80;99.90
46231;DHT22;31949;51.404;-0.038;2022-12-22T10:26:15;9.80;99.90
46231;DHT22;31949;51.404;-0.038;2022-12-22T10:29:03;9.90;99.90
46231;DHT22;31949;51.404;-0.038;2022-12-22T10:31:33;9.90;99.90
46231;DHT22;31949;51.404;-0.038;2022-12-22T10:34:13;9.90;99.90
46231;DHT22;31949;51.404;-0.038;2022-12-22T10:36:49;10.00;99.90
46231;DHT22;31949;51.404;-0.038;2022-12-22T10:39:29;10.00;99.90
46231;DHT22;31949;51.404;-0.038;2022-12-22T10:42:07;10.10;99.90
46231;DHT22;31949;51.404;-0.038;2022-12-22T10:44:36;10.20;99.90
46231;DHT22;31949;51.404;-0.038;2022-12-22T10:47:18;10.20;99.90
46231;DHT22;31949;51.404;-0.038;2022-12-22T10:49:46;10.20;99.90
46231;DHT22;31949;51.404;-0.038;2022-12-22T10:52:21;10.30;99.90
46231;DHT22;31949;51.404;-0.038;2022-12-22T10:57:45;10.40;99.90
46231;DHT22;31949;51.404;-0.038;2022-12-22T11:00:31;10.40;99.90
46231;DHT22;31949;51.404;-0.038;2022-12-22T11:03:00;10.50;99.90
46231;DHT22;31949;51.404;-0.038;2022-12-22T11:05:28;10.50;99.90
46231;DHT22;31949;51.404;-0.038;2022-12-22T11:07:56;10.60;99.90
46231;DHT22;31949;51.404;-0.038;2022-12-22T11:10:34;10.70;99.90
46231;DHT22;31949;51.404;-0.038;2022-12-22T11:15:48;10.80;99.90
46231;DHT22;31949;51.404;-0.038;2022-12-22T11:26:08;10.90;99.90
46231;DHT22;31949;51.404;-0.038;2022-12-22T11:29:19;10.90;99.90
46231;DHT22;31949;51.404;-0.038;2022-12-22T11:40:37;11.00;99.90
46231;DHT22;31949;51.404;-0.038;2022-12-22T11:57:14;11.10;99.90
46231;DHT22;31949;51.404;-0.038;2022-12-22T12:00:17;11.20;99.90
46231;DHT22;31949;51.404;-0.038;2022-12-22T12:02:58;11.20;99.90
46231;DHT22;31949;51.404;-0.038;2022-12-22T12:11:33;11.20;99.90
46231;DHT22;31949;51.404;-0.038;2022-12-22T12:17:20;11.20;99.90
46231;DHT22;31949;51.404;-0.038;2022-12-22T12:25:16;11.40;99.90
46231;DHT22;31949;51.404;-0.038;2022-12-22T12:30:26;11.40;99.90
46231;DHT22;31949;51.404;-0.038;2022-12-22T12:33:18;11.50;99.90
46231;DHT22;31949;51.404;-0.038;2022-12-22T12:35:58;11.50;99.90
46231;DHT22;31949;51.404;-0.038;2022-12-22T12:44:15;11.60;99.90
46231;DHT22;31949;51.404;-0.038;2022-12-22T12:52:02;11.70;99.90
46231;DHT22;31949;51.404;-0.038;2022-12-22T12:57:28;11.70;99.90
46231;DHT22;31949;51.404;-0.038;2022-12-22T12:59:57;11.70;99.90
46231;DHT22;31949;51.404;-0.038;2022-12-22T13:02:31;11.80;99.90
46231;DHT22;31949;51.404;-0.038;2022-12-22T13:08:14;11.90;99.90
46231;DHT22;31949;51.404;-0.038;2022-12-22T13:10:46;11.90;99.90
46231;DHT22;31949;51.404;-0.038;2022-12-22T13:21:07;11.90;99.90
46231;DHT22;31949;51.404;-0.038;2022-12-22T13:26:43;11.90;99.90
46231;DHT22;31949;51.404;-0.038;2022-12-22T13:29:38;11.90;99.90
46231;DHT22;31949;51.404;-0.038;2022-12-22T13:32:32;11.90;99.90
46231;DHT22;31949;51.404;-0.038;2022-12-22T13:37:59;12.00;99.90
46231;DHT22;31949;51.404;-0.038;2022-12-22T13:40:28;11.90;99.90
46231;DHT22;31949;51.404;-0.038;2022-12-22T13:46:00;11.90;99.90
46231;DHT22;31949;51.404;-0.038;2022-12-22T13:48:38;11.90;99.90
46231;DHT22;31949;51.404;-0.038;2022-12-22T13:53:50;11.90;99.90
46231;DHT22;31949;51.404;-0.038;2022-12-22T13:56:46;11.90;99.90
46231;DHT22;31949;51.404;-0.038;2022-12-22T13:59:28;11.80;99.90
46231;DHT22;31949;51.404;-0.038;2022-12-22T14:02:01;11.80;99.90
46231;DHT22;31949;51.404;-0.038;2022-12-22T14:04:29;11.80;99.90
46231;DHT22;31949;51.404;-0.038;2022-12-22T14:07:11;11.80;99.90
46231;DHT22;31949;51.404;-0.038;2022-12-22T14:09:46;11.70;99.90
46231;DHT22;31949;51.404;-0.038;2022-12-22T14:12:23;11.70;99.90
46231;DHT22;31949;51.404;-0.038;2022-12-22T14:14:53;11.70;99.90
46231;DHT22;31949;51.404;-0.038;2022-12-22T14:17:25;11.70;99.90
46231;DHT22;31949;51.404;-0.038;2022-12-22T14:19:57;11.70;99.90
46231;DHT22;31949;51.404;-0.038;2022-12-22T14:22:32;11.70;99.90
46231;DHT22;31949;51.404;-0.038;2022-12-22T14:25:11;11.70;99.90
46231;DHT22;31949;51.404;-0.038;2022-12-22T14:27:46;11.60;99.90
46231;DHT22;31949;51.404;-0.038;2022-12-22T14:30:18;11.60;99.90
46231;DHT22;31949;51.404;-0.038;2022-12-22T14:32:53;11.60;99.90
46231;DHT22;31949;51.404;-0.038;2022-12-22T14:35:27;11.80;99.90
46231;DHT22;31949;51.404;-0.038;2022-12-22T14:40:42;11.70;99.90
46231;DHT22;31949;51.404;-0.038;2022-12-22T14:43:29;11.70;99.90
46231;DHT22;31949;51.404;-0.038;2022-12-22T14:46:04;11.70;99.90
46231;DHT22;31949;51.404;-0.038;2022-12-22T14:48:38;11.70;99.90
46231;DHT22;31949;51.404;-0.038;2022-12-22T14:51:06;11.70;99.90
46231;DHT22;31949;51.404;-0.038;2022-12-22T14:53:43;11.60;99.90
46231;DHT22;31949;51.404;-0.038;2022-12-22T14:56:15;11.60;99.90
46231;DHT22;31949;51.404;-0.038;2022-12-22T14:58:45;11.60;99.90
46231;DHT22;31949;51.404;-0.038;2022-12-22T15:01:20;11.60;99.90
46231;DHT22;31949;51.404;-0.038;2022-12-22T15:06:34;11.60;99.90
46231;DHT22;31949;51.404;-0.038;2022-12-22T15:11:43;11.60;99.90
46231;DHT22;31949;51.404;-0.038;2022-12-22T15:14:23;11.60;99.90
46231;DHT22;31949;51.404;-0.038;2022-12-22T15:16:59;11.60;99.90
46231;DHT22;31949;51.404;-0.038;2022-12-22T15:19:30;11.60;99.90
46231;DHT22;31949;51.404;-0.038;2022-12-22T15:21:58;11.60;99.90
46231;DHT22;31949;51.404;-0.038;2022-12-22T15:24:25;11.60;99.90
46231;DHT22;31949;51.404;-0.038;2022-12-22T15:26:53;11.60;99.90
46231;DHT22;31949;51.404;-0.038;2022-12-22T15:29:20;11.60;99.90
46231;DHT22;31949;51.404;-0.038;2022-12-22T15:31:47;11.60;99.90
46231;DHT22;31949;51.404;-0.038;2022-12-22T15:34:29;11.60;99.90
46231;DHT22;31949;51.404;-0.038;2022-12-22T15:36:57;11.60;99.90
46231;DHT22;31949;51.404;-0.038;2022-12-22T15:39:25;11.60;99.90
46231;DHT22;31949;51.404;-0.038;2022-12-22T15:41:52;11.70;99.90
46231;DHT22;31949;51.404;-0.038;2022-12-22T15:44:20;11.80;99.90
46231;DHT22;31949;51.404;-0.038;2022-12-22T15:46:56;11.80;99.90
46231;DHT22;31949;51.404;-0.038;2022-12-22T15:49:26;11.80;99.90
46231;DHT22;31949;51.404;-0.038;2022-12-22T15:51:59;11.80;99.90
46231;DHT22;31949;51.404;-0.038;2022-12-22T15:54:28;11.90;99.90
46231;DHT22;31949;51.404;-0.038;2022-12-22T15:56:59;11.90;99.90
46231;DHT22;31949;51.404;-0.038;2022-12-22T15:59:28;11.90;99.90
46231;DHT22;31949;51.404;-0.038;2022-12-22T16:01:56;11.90;99.90
46231;DHT22;31949;51.404;-0.038;2022-12-22T16:04:28;11.90;99.90
46231;DHT22;31949;51.404;-0.038;2022-12-22T16:06:57;11.90;99.90
46231;DHT22;31949;51.404;-0.038;2022-12-22T16:09:27;11.90;99.90
46231;DHT22;31949;51.404;-0.038;2022-12-22T16:11:57;11.80;99.90
46231;DHT22;31949;51.404;-0.038;2022-12-22T16:14:24;11.80;99.90
46231;DHT22;31949;51.404;-0.038;2022-12-22T16:16:51;11.80;99.90
46231;DHT22;31949;51.404;-0.038;2022-12-22T16:19:19;11.80;99.90
46231;DHT22;31949;51.404;-0.038;2022-12-22T16:21:48;11.80;99.90
46231;DHT22;31949;51.404;-0.038;2022-12-22T16:24:29;11.80;99.90
46231;DHT22;31949;51.404;-0.038;2022-12-22T16:26:57;11.80;99.90
46231;DHT22;31949;51.404;-0.038;2022-12-22T16:29:25;11.70;99.90
46231;DHT22;31949;51.404;-0.038;2022-12-22T16:31:54;11.70;99.90
46231;DHT22;31949;51.404;-0.038;2022-12-22T16:34:28;11.80;99.90
46231;DHT22;31949;51.404;-0.038;2022-12-22T16:36:55;11.80;99.90
46231;DHT22;31949;51.404;-0.038;2022-12-22T16:39:23;11.70;99.90
46231;DHT22;31949;51.404;-0.038;2022-12-22T16:41:50;11.80;99.90
46231;DHT22;31949;51.404;-0.038;2022-12-22T16:44:26;11.90;99.90
46231;DHT22;31949;51.404;-0.038;2022-12-22T16:46:55;11.90;99.90
46231;DHT22;31949;51.404;-0.038;2022-12-22T16:49:23;11.90;99.90
46231;DHT22;31949;51.404;-0.038;2022-12-22T16:51:53;11.80;99.90
46231;DHT22;31949;51.404;-0.038;2022-12-22T16:54:21;11.80;99.90
46231;DHT22;31949;51.404;-0.038;2022-12-22T16:56:48;11.90;99.90
46231;DHT22;31949;51.404;-0.038;2022-12-22T16:59:17;11.80;99.90
46231;DHT22;31949;51.404;-0.038;2022-12-22T17:01:49;11.80;99.90
46231;DHT22;31949;51.404;-0.038;2022-12-22T17:04:24;11.80;99.90
46231;DHT22;31949;51.404;-0.038;2022-12-22T17:06:54;11.90;99.90
46231;DHT22;31949;51.404;-0.038;2022-12-22T17:09:27;11.80;99.90
46231;DHT22;31949;51.404;-0.038;2022-12-22T17:11:58;11.80;99.90
46231;DHT22;31949;51.404;-0.038;2022-12-22T17:14:47;11.90;99.90
46231;DHT22;31949;51.404;-0.038;2022-12-22T17:17:18;11.90;99.90
46231;DHT22;31949;51.404;-0.038;2022-12-22T17:19:58;11.80;99.90
46231;DHT22;31949;51.404;-0.038;2022-12-22T17:22:28;11.80;99.90
46231;DHT22;31949;51.404;-0.038;2022-12-22T17:24:59;11.80;99.90
46231;DHT22;31949;51.404;-0.038;2022-12-22T17:27:31;11.90;99.90
46231;DHT22;31949;51.404;-0.038;2022-12-22T17:30:01;11.80;99.90
46231;DHT22;31949;51.404;-0.038;2022-12-22T17:32:31;11.70;99.90
46231;DHT22;31949;51.404;-0.038;2022-12-22T17:34:59;11.70;99.90
46231;DHT22;31949;51.404;-0.038;2022-12-22T17:37:26;11.70;99.90
46231;DHT22;31949;51.404;-0.038;2022-12-22T17:39:59;11.60;99.90
46231;DHT22;31949;51.404;-0.038;2022-12-22T17:42:29;11.70;99.90
46231;DHT22;31949;51.404;-0.038;2022-12-22T17:44:57;11.60;99.90
46231;DHT22;31949;51.404;-0.038;2022-12-22T17:47:24;11.60;99.90
46231;DHT22;31949;51.404;-0.038;2022-12-22T17:50:00;11.60;99.90
46231;DHT22;31949;51.404;-0.038;2022-12-22T17:52:27;11.60;99.90
46231;DHT22;31949;51.404;-0.038;2022-12-22T17:54:55;11.70;99.90
46231;DHT22;31949;51.404;-0.038;2022-12-22T17:57:30;11.70;99.90
46231;DHT22;31949;51.404;-0.038;2022-12-22T17:59:58;11.70;99.90
46231;DHT22;31949;51.404;-0.038;2022-12-22T18:02:26;11.70;99.90
46231;DHT22;31949;51.404;-0.038;2022-12-22T18:04:55;11.70;99.90
46231;DHT22;31949;51.404;-0.038;2022-12-22T18:07:23;11.70;99.90
46231;DHT22;31949;51.404;-0.038;2022-12-22T18:09:55;11.70;99.90
46231;DHT22;31949;51.404;-0.038;2022-12-22T18:12:25;11.70;99.90
46231;DHT22;31949;51.404;-0.038;2022-12-22T18:14:53;11.70;99.90